createdAt,value
2018-10-03T00:02:01.211Z,12.37
2018-10-03T00:04:29.924Z,12.35
2018-10-03T00:06:59.295Z,12.37
2018-10-03T00:09:28.008Z,12.37
2018-10-03T00:11:59.616Z,12.31
2018-10-03T00:15:17.237Z,12.32
2018-10-03T00:17:47.187Z,12.33
2018-10-03T00:20:18.865Z,12.31
2018-10-03T00:22:47.547Z,12.31
2018-10-03T00:25:16.211Z,12.27
2018-10-03T00:27:45.506Z,12.25
2018-10-03T00:30:14.274Z,12.22
2018-10-03T00:32:42.999Z,12.19
2018-10-03T00:35:16.888Z,12.21
2018-10-03T00:37:45.659Z,12.23
2018-10-03T00:40:14.430Z,12.27
2018-10-03T00:42:43.090Z,12.17
2018-10-03T00:45:11.851Z,12.17
2018-10-03T00:47:40.566Z,12.19
2018-10-03T00:50:09.263Z,12.21
2018-10-03T00:52:38.015Z,12.17
2018-10-03T00:55:06.824Z,12.16
2018-10-03T00:57:35.530Z,12.19
2018-10-03T01:00:04.352Z,12.15
2018-10-03T01:02:33.145Z,12.17
2018-10-03T01:05:01.799Z,12.16
2018-10-03T01:07:30.558Z,12.18
2018-10-03T01:10:05.555Z,12.16
2018-10-03T01:12:34.331Z,12.15
2018-10-03T01:15:03.070Z,12.18
2018-10-03T01:17:31.977Z,12.17
2018-10-03T01:20:00.713Z,12.10
2018-10-03T01:22:29.427Z,12.12
2018-10-03T01:24:58.070Z,12.13
2018-10-03T01:27:29.209Z,12.12
2018-10-03T01:29:58.829Z,12.05
2018-10-03T01:32:27.570Z,12.12
2018-10-03T01:34:56.438Z,12.07
2018-10-03T01:37:25.399Z,12.05
2018-10-03T01:39:54.085Z,11.97
2018-10-03T01:42:22.771Z,12.00
2018-10-03T01:44:51.450Z,11.99
2018-10-03T01:47:20.135Z,11.99
2018-10-03T01:49:48.808Z,11.91
2018-10-03T01:52:17.465Z,11.93
2018-10-03T01:54:46.142Z,11.90
2018-10-03T01:57:14.926Z,11.95
2018-10-03T01:59:43.596Z,12.00
2018-10-03T02:02:12.336Z,11.92
2018-10-03T02:04:41.024Z,11.96
2018-10-03T02:07:09.687Z,11.97
2018-10-03T02:09:38.379Z,11.92
2018-10-03T02:12:12.141Z,11.92
2018-10-03T02:14:40.904Z,11.90
2018-10-03T02:17:09.550Z,11.87
2018-10-03T02:19:38.254Z,11.87
2018-10-03T02:22:06.940Z,11.86
2018-10-03T02:24:35.676Z,11.91
2018-10-03T02:27:04.326Z,11.89
2018-10-03T02:29:34.406Z,11.83
2018-10-03T02:32:03.118Z,11.84
2018-10-03T02:34:31.911Z,11.87
2018-10-03T02:37:00.558Z,11.84
2018-10-03T02:39:29.236Z,11.88
2018-10-03T02:41:57.959Z,11.88
2018-10-03T02:44:26.662Z,11.85
2018-10-03T02:46:55.340Z,11.87
2018-10-03T02:49:24.035Z,11.81
2018-10-03T02:51:52.714Z,11.83
2018-10-03T02:54:21.410Z,11.81
2018-10-03T02:56:50.081Z,11.86
2018-10-03T02:59:18.795Z,11.88
2018-10-03T03:01:47.520Z,11.81
2018-10-03T03:04:16.182Z,11.88
2018-10-03T03:06:44.826Z,11.82
2018-10-03T03:09:14.276Z,11.90
2018-10-03T03:11:43.012Z,11.80
2018-10-03T03:14:11.730Z,11.84
2018-10-03T03:16:40.493Z,11.78
2018-10-03T03:19:09.152Z,11.77
2018-10-03T03:21:37.843Z,11.89
2018-10-03T03:24:06.546Z,11.85
2018-10-03T03:26:35.218Z,11.86
2018-10-03T03:29:03.875Z,11.76
2018-10-03T03:31:32.626Z,11.86
2018-10-03T03:34:01.293Z,11.84
2018-10-03T03:36:29.974Z,11.84
2018-10-03T03:38:58.647Z,11.80
2018-10-03T03:41:27.368Z,11.75
2018-10-03T03:43:56.108Z,11.76
2018-10-03T03:46:24.857Z,11.74
2018-10-03T03:48:53.513Z,11.77
2018-10-03T03:51:22.188Z,11.67
2018-10-03T03:53:50.863Z,11.68
2018-10-03T03:56:19.574Z,11.67
2018-10-03T03:58:48.344Z,11.72
2018-10-03T04:01:17.019Z,11.71
2018-10-03T04:03:45.750Z,11.79
2018-10-03T04:06:14.543Z,11.72
2018-10-03T04:08:43.220Z,11.79
2018-10-03T04:11:11.954Z,11.71
2018-10-03T04:13:40.718Z,11.82
2018-10-03T04:16:09.442Z,11.83
2018-10-03T04:18:38.775Z,11.77
2018-10-03T04:21:07.545Z,11.87
2018-10-03T04:23:36.468Z,11.83
2018-10-03T04:26:05.172Z,11.85
2018-10-03T04:28:33.862Z,11.79
2018-10-03T04:31:02.641Z,11.81
2018-10-03T04:33:31.401Z,11.76
2018-10-03T04:36:00.175Z,11.83
2018-10-03T04:38:29.080Z,11.87
2018-10-03T04:40:57.807Z,11.86
2018-10-03T04:43:26.554Z,11.89
2018-10-03T04:45:55.299Z,11.86
2018-10-03T04:48:24.075Z,11.83
2018-10-03T04:50:52.778Z,11.84
2018-10-03T04:53:22.335Z,11.77
2018-10-03T04:55:51.172Z,11.90
2018-10-03T04:58:19.854Z,11.91
2018-10-03T05:00:48.610Z,11.94
2018-10-03T05:03:17.327Z,11.99
2018-10-03T05:05:46.009Z,12.04
2018-10-03T05:08:14.713Z,12.14
2018-10-03T05:10:43.367Z,12.19
2018-10-03T05:13:12.057Z,12.16
2018-10-03T05:15:40.734Z,12.09
2018-10-03T05:18:09.430Z,12.11
2018-10-03T05:20:38.185Z,12.13
2018-10-03T05:23:07.011Z,12.17
2018-10-03T05:25:35.670Z,12.24
2018-10-03T05:28:04.350Z,12.22
2018-10-03T05:30:33.033Z,12.26
2018-10-03T05:33:01.744Z,12.27
2018-10-03T05:35:30.415Z,12.30
2018-10-03T05:37:59.097Z,12.30
2018-10-03T05:40:28.171Z,12.29
2018-10-03T05:42:57.641Z,12.32
2018-10-03T05:45:26.412Z,12.43
2018-10-03T05:47:55.151Z,12.48
2018-10-03T05:50:23.871Z,12.64
2018-10-03T05:52:52.603Z,12.78
2018-10-03T05:55:21.277Z,12.74
2018-10-03T05:57:50.015Z,12.87
2018-10-03T06:00:18.829Z,12.87
2018-10-03T06:02:47.581Z,12.93
2018-10-03T06:05:16.571Z,12.96
2018-10-03T06:07:45.293Z,12.95
2018-10-03T06:10:14.118Z,13.08
2018-10-03T06:12:42.976Z,13.12
2018-10-03T06:15:11.754Z,13.01
2018-10-03T06:17:40.466Z,13.08
2018-10-03T06:20:09.421Z,13.14
2018-10-03T06:22:38.444Z,13.19
2018-10-03T06:25:07.268Z,13.22
2018-10-03T06:27:36.027Z,13.35
2018-10-03T06:30:04.862Z,13.33
2018-10-03T06:32:33.578Z,13.27
2018-10-03T06:35:02.388Z,13.43
2018-10-03T06:37:31.113Z,13.42
2018-10-03T06:39:59.939Z,13.32
2018-10-03T06:42:28.623Z,13.26
2018-10-03T06:44:57.437Z,13.30
2018-10-03T06:47:26.203Z,13.42
2018-10-03T06:49:55.654Z,13.37
2018-10-03T06:52:24.403Z,13.44
2018-10-03T06:54:53.141Z,13.64
2018-10-03T06:57:21.902Z,13.77
2018-10-03T06:59:50.660Z,13.67
2018-10-03T07:02:19.553Z,13.65
2018-10-03T07:04:48.246Z,13.49
2018-10-03T07:07:16.911Z,13.48
2018-10-03T07:09:45.599Z,13.55
2018-10-03T07:12:14.358Z,13.56
2018-10-03T07:14:43.029Z,13.59
2018-10-03T07:17:11.722Z,13.55
2018-10-03T07:19:40.460Z,13.55
2018-10-03T07:22:09.183Z,13.61
2018-10-03T07:24:37.958Z,13.66
2018-10-03T07:27:06.888Z,13.66
2018-10-03T07:29:35.596Z,13.71
2018-10-03T07:32:04.332Z,13.77
2018-10-03T07:34:33.091Z,13.86
2018-10-03T07:37:01.824Z,13.78
2018-10-03T07:39:30.549Z,13.85
2018-10-03T07:41:59.336Z,14.02
2018-10-03T07:44:28.080Z,13.93
2018-10-03T07:46:56.763Z,13.81
2018-10-03T07:49:25.466Z,13.90
2018-10-03T07:51:54.944Z,13.99
2018-10-03T07:54:23.590Z,14.11
2018-10-03T07:56:52.274Z,14.01
2018-10-03T07:59:21.014Z,14.15
2018-10-03T08:01:49.668Z,14.11
2018-10-03T08:04:18.377Z,14.27
2018-10-03T08:06:47.170Z,14.22
2018-10-03T08:09:15.914Z,14.30
2018-10-03T08:11:44.611Z,14.41
2018-10-03T08:14:19.832Z,14.21
2018-10-03T08:16:48.493Z,14.37
2018-10-03T08:19:23.590Z,14.46
2018-10-03T08:21:52.269Z,14.64
2018-10-03T08:24:20.976Z,14.75
2018-10-03T08:26:49.660Z,14.79
2018-10-03T08:29:18.337Z,14.72
2018-10-03T08:31:47.027Z,14.74
2018-10-03T08:34:15.690Z,14.54
2018-10-03T08:36:44.419Z,14.71
2018-10-03T08:39:14.506Z,14.68
2018-10-03T08:41:43.572Z,14.64
2018-10-03T08:44:12.301Z,14.41
2018-10-03T08:46:40.975Z,14.28
2018-10-03T08:49:09.673Z,14.33
2018-10-03T08:51:38.341Z,14.27
2018-10-03T08:54:07.172Z,14.23
2018-10-03T08:56:35.927Z,14.22
2018-10-03T08:59:04.622Z,14.23
2018-10-03T09:01:33.355Z,14.38
2018-10-03T09:04:02.081Z,14.38
2018-10-03T09:06:30.788Z,14.22
2018-10-03T09:08:59.487Z,14.20
2018-10-03T09:11:28.179Z,14.31
2018-10-03T09:13:56.884Z,14.42
2018-10-03T09:16:25.554Z,14.59
2018-10-03T09:18:54.327Z,14.70
2018-10-03T09:21:23.053Z,14.82
2018-10-03T09:23:51.693Z,14.75
2018-10-03T09:26:20.463Z,14.58
2018-10-03T09:28:49.242Z,14.31
2018-10-03T09:31:17.986Z,14.38
2018-10-03T09:33:46.661Z,14.53
2018-10-03T09:36:15.465Z,14.64
2018-10-03T09:38:44.145Z,14.92
2018-10-03T09:41:13.069Z,15.04
2018-10-03T09:43:41.786Z,15.14
2018-10-03T09:46:10.454Z,15.25
2018-10-03T09:48:39.169Z,15.14
2018-10-03T09:51:07.878Z,15.36
2018-10-03T09:53:36.614Z,15.32
2018-10-03T09:56:05.318Z,15.34
2018-10-03T09:58:34.002Z,15.37
2018-10-03T10:01:07.787Z,15.38
2018-10-03T10:03:36.487Z,15.61
2018-10-03T10:06:05.208Z,15.66
2018-10-03T10:08:34.018Z,15.76
2018-10-03T10:11:02.776Z,15.72
2018-10-03T10:13:31.453Z,15.64
2018-10-03T10:16:00.118Z,15.77
2018-10-03T10:18:28.821Z,15.98
2018-10-03T10:20:57.598Z,16.09
2018-10-03T10:23:26.241Z,16.12
2018-10-03T10:25:54.928Z,16.05
2018-10-03T10:28:23.630Z,16.09
2018-10-03T10:30:52.351Z,16.23
2018-10-03T10:33:21.046Z,16.43
2018-10-03T10:35:49.733Z,16.51
2018-10-03T10:38:18.644Z,16.53
2018-10-03T10:40:47.512Z,16.41
2018-10-03T10:43:16.366Z,16.39
2018-10-03T10:45:45.189Z,16.51
2018-10-03T10:48:13.933Z,16.45
2018-10-03T10:50:42.666Z,16.61
2018-10-03T10:53:11.329Z,16.65
2018-10-03T10:55:40.115Z,16.64
2018-10-03T10:58:09.114Z,16.73
2018-10-03T11:00:37.790Z,16.73
2018-10-03T11:03:06.572Z,16.48
2018-10-03T11:05:35.276Z,16.31
2018-10-03T11:08:04.059Z,16.06
2018-10-03T11:10:32.772Z,15.85
2018-10-03T11:13:01.680Z,16.02
2018-10-03T11:15:30.493Z,15.91
2018-10-03T11:17:59.242Z,15.55
2018-10-03T11:20:28.000Z,15.69
2018-10-03T11:22:56.891Z,15.68
2018-10-03T11:25:25.597Z,15.75
2018-10-03T11:27:54.507Z,15.74
2018-10-03T11:30:23.406Z,15.95
2018-10-03T11:32:53.235Z,16.09
2018-10-03T11:35:22.578Z,16.30
2018-10-03T11:37:51.854Z,16.71
2018-10-03T11:40:20.666Z,17.06
2018-10-03T11:42:50.515Z,17.13
2018-10-03T11:45:19.337Z,17.17
2018-10-03T11:47:48.080Z,17.27
2018-10-03T11:50:16.819Z,17.12
2018-10-03T11:52:45.552Z,16.82
2018-10-03T11:55:14.276Z,17.32
2018-10-03T11:57:43.009Z,17.37
2018-10-03T12:00:11.949Z,17.33
2018-10-03T12:02:40.790Z,17.44
2018-10-03T12:05:10.303Z,17.52
2018-10-03T12:07:39.540Z,17.71
2018-10-03T12:10:14.118Z,17.79
2018-10-03T12:12:42.899Z,17.73
2018-10-03T12:15:11.862Z,17.77
2018-10-03T12:17:40.623Z,17.84
2018-10-03T12:20:09.355Z,17.89
2018-10-03T12:22:38.100Z,17.95
2018-10-03T12:25:06.885Z,17.98
2018-10-03T12:27:35.581Z,17.64
2018-10-03T12:30:04.319Z,17.80
2018-10-03T12:32:33.035Z,17.85
2018-10-03T12:35:01.688Z,17.94
2018-10-03T12:37:30.473Z,17.77
2018-10-03T12:39:59.142Z,17.83
2018-10-03T12:42:27.894Z,17.84
2018-10-03T12:44:56.655Z,18.07
2018-10-03T12:47:25.345Z,18.22
2018-10-03T12:49:54.134Z,18.35
2018-10-03T12:52:22.817Z,18.29
2018-10-03T12:54:51.673Z,17.93
2018-10-03T12:57:20.293Z,18.08
2018-10-03T12:59:49.124Z,17.95
2018-10-03T13:02:17.849Z,18.03
2018-10-03T13:04:46.533Z,18.09
2018-10-03T13:07:15.297Z,17.93
2018-10-03T13:09:44.026Z,17.67
2018-10-03T13:12:12.770Z,17.50
2018-10-03T13:14:41.475Z,17.38
2018-10-03T13:17:10.372Z,17.32
2018-10-03T13:19:39.088Z,17.46
2018-10-03T13:22:07.979Z,17.62
2018-10-03T13:24:36.689Z,18.27
2018-10-03T13:27:05.374Z,18.36
2018-10-03T13:29:34.067Z,18.21
2018-10-03T13:32:02.774Z,18.06
2018-10-03T13:34:31.513Z,17.96
2018-10-03T13:37:00.254Z,17.73
2018-10-03T13:39:28.962Z,17.80
2018-10-03T13:41:57.691Z,17.61
2018-10-03T13:44:26.421Z,17.32
2018-10-03T13:46:55.122Z,17.20
2018-10-03T13:49:23.806Z,17.10
2018-10-03T13:51:52.474Z,17.02
2018-10-03T13:54:21.166Z,17.18
2018-10-03T13:56:49.873Z,17.12
2018-10-03T13:59:18.590Z,17.41
2018-10-03T14:01:47.345Z,17.57
2018-10-03T14:04:15.973Z,17.41
2018-10-03T14:06:44.606Z,17.61
2018-10-03T14:09:13.943Z,18.05
2018-10-03T14:11:42.670Z,19.12
2018-10-03T14:14:11.406Z,19.26
2018-10-03T14:16:40.136Z,19.53
2018-10-03T14:19:08.913Z,18.93
2018-10-03T14:21:37.656Z,18.17
2018-10-03T14:24:06.519Z,17.75
2018-10-03T14:26:35.401Z,17.49
2018-10-03T14:29:04.140Z,17.46
2018-10-03T14:31:32.958Z,17.36
2018-10-03T14:34:01.683Z,17.20
2018-10-03T14:36:30.380Z,17.30
2018-10-03T14:38:59.067Z,17.18
2018-10-03T14:41:27.862Z,17.34
2018-10-03T14:43:56.646Z,17.34
2018-10-03T14:46:25.345Z,17.16
2018-10-03T14:48:54.147Z,17.04
2018-10-03T14:51:22.829Z,16.94
2018-10-03T14:53:51.549Z,16.81
2018-10-03T14:56:20.235Z,16.73
2018-10-03T14:58:48.984Z,16.74
2018-10-03T15:01:17.671Z,16.80
2018-10-03T15:03:46.689Z,16.92
2018-10-03T15:06:15.539Z,17.01
2018-10-03T15:08:44.527Z,17.16
2018-10-03T15:11:13.273Z,17.42
2018-10-03T15:13:42.014Z,17.59
2018-10-03T15:16:10.901Z,17.42
2018-10-03T15:18:39.726Z,17.09
2018-10-03T15:21:08.446Z,17.06
2018-10-03T15:23:37.116Z,16.93
2018-10-03T15:26:05.872Z,16.82
2018-10-03T15:28:34.532Z,16.71
2018-10-03T15:31:03.258Z,16.71
2018-10-03T15:33:31.971Z,16.73
2018-10-03T15:36:00.724Z,16.61
2018-10-03T15:38:29.462Z,16.59
2018-10-03T15:40:58.218Z,16.60
2018-10-03T15:43:27.022Z,16.49
2018-10-03T15:45:55.724Z,16.49
2018-10-03T15:48:24.387Z,16.81
2018-10-03T15:50:53.086Z,16.74
2018-10-03T15:53:21.806Z,16.68
2018-10-03T15:55:50.598Z,16.75
2018-10-03T15:58:19.453Z,16.60
2018-10-03T16:00:48.201Z,16.41
2018-10-03T16:03:16.973Z,16.36
2018-10-03T16:05:45.701Z,16.29
2018-10-03T16:08:14.573Z,16.21
2018-10-03T16:10:43.370Z,16.25
2018-10-03T16:13:12.160Z,16.16
2018-10-03T16:15:41.004Z,16.06
2018-10-03T16:18:09.702Z,15.93
2018-10-03T16:20:38.474Z,15.95
2018-10-03T16:23:07.303Z,15.90
2018-10-03T16:25:36.004Z,15.85
2018-10-03T16:28:04.758Z,15.86
2018-10-03T16:30:33.498Z,15.75
2018-10-03T16:33:02.259Z,15.65
2018-10-03T16:35:30.942Z,15.62
2018-10-03T16:37:59.642Z,15.61
2018-10-03T16:40:28.441Z,15.52
2018-10-03T16:42:57.211Z,15.49
2018-10-03T16:45:25.945Z,15.39
2018-10-03T16:47:55.938Z,15.30
2018-10-03T16:50:24.605Z,15.29
2018-10-03T16:52:53.354Z,15.28
2018-10-03T16:55:22.080Z,15.22
2018-10-03T16:57:50.887Z,15.21
2018-10-03T17:00:19.688Z,15.17
2018-10-03T17:02:48.804Z,15.19
2018-10-03T17:05:17.713Z,15.18
2018-10-03T17:07:52.497Z,15.14
2018-10-03T17:10:21.803Z,15.10
2018-10-03T17:13:12.805Z,15.10
2018-10-03T17:15:43.989Z,15.04
2018-10-03T17:18:17.615Z,14.99
2018-10-03T17:20:48.907Z,14.91
2018-10-03T17:23:21.412Z,14.88
2018-10-03T17:25:50.195Z,14.80
2018-10-03T17:34:01.027Z,14.63
2018-10-03T17:36:37.382Z,14.66
2018-10-03T17:39:28.153Z,14.66
2018-10-03T17:41:59.960Z,14.74
2018-10-03T17:44:37.282Z,14.80
2018-10-03T18:11:37.138Z,14.64
2018-10-03T18:20:44.480Z,14.59
2018-10-03T18:23:49.354Z,14.59
2018-10-03T18:26:18.965Z,14.48
2018-10-03T18:28:49.089Z,14.41
2018-10-03T18:31:17.931Z,14.43
2018-10-03T18:33:46.926Z,14.44
2018-10-03T18:36:15.929Z,14.54
2018-10-03T18:38:45.006Z,14.41
2018-10-03T18:41:14.055Z,14.35
2018-10-03T18:43:43.060Z,14.18
2018-10-03T18:46:12.326Z,14.19
2018-10-03T18:48:41.346Z,14.20
2018-10-03T18:51:10.404Z,14.30
2018-10-03T18:53:39.506Z,14.33
2018-10-03T18:56:08.574Z,14.36
2018-10-03T18:58:37.657Z,14.29
2018-10-03T19:01:08.173Z,14.25
2018-10-03T19:03:37.297Z,14.17
2018-10-03T19:06:06.527Z,14.16
2018-10-03T19:08:36.429Z,14.14
2018-10-03T19:11:05.597Z,14.15
2018-10-03T19:13:34.620Z,14.17
2018-10-03T19:16:03.724Z,14.17
2018-10-03T19:18:33.222Z,14.10
2018-10-03T19:21:02.617Z,14.09
2018-10-03T19:23:31.761Z,14.07
2018-10-03T19:26:00.932Z,14.09
2018-10-03T19:28:30.080Z,13.98
2018-10-03T19:30:59.403Z,13.93
2018-10-03T19:33:28.524Z,13.86
2018-10-03T19:35:57.530Z,13.86
2018-10-03T19:38:26.653Z,13.75
2018-10-03T19:40:55.611Z,13.82
2018-10-03T19:43:24.473Z,13.70
2018-10-03T19:45:53.213Z,13.75
2018-10-03T19:48:22.199Z,13.69
2018-10-03T19:50:51.173Z,13.62
2018-10-03T19:53:25.146Z,13.64
2018-10-03T19:55:54.010Z,13.58
2018-10-03T19:58:23.109Z,13.62
2018-10-03T20:00:51.959Z,13.55
2018-10-03T20:03:20.806Z,13.50
2018-10-03T20:05:49.729Z,13.51
2018-10-03T20:08:18.660Z,13.56
2018-10-03T20:10:47.516Z,13.58
2018-10-03T20:13:16.245Z,13.56
2018-10-03T20:15:45.703Z,13.41
2018-10-03T20:18:14.473Z,13.40
2018-10-03T20:20:43.399Z,13.37
2018-10-03T20:23:12.240Z,13.39
2018-10-03T20:25:41.014Z,13.27
2018-10-03T20:28:09.760Z,13.39
2018-10-03T20:30:45.245Z,13.30
2018-10-03T20:33:14.027Z,13.19
2018-10-03T20:35:42.818Z,13.29
2018-10-03T20:38:11.611Z,13.19
2018-10-03T20:40:40.353Z,13.19
2018-10-03T20:43:09.212Z,13.15
2018-10-03T20:45:37.934Z,13.15
2018-10-03T20:48:06.797Z,13.12
2018-10-03T20:50:35.575Z,13.15
2018-10-03T20:53:04.384Z,13.14
2018-10-03T20:55:33.381Z,13.12
2018-10-03T20:58:02.225Z,13.22
2018-10-03T21:00:30.974Z,13.29
2018-10-03T21:02:59.691Z,13.27
2018-10-03T21:05:28.414Z,13.45
2018-10-03T21:07:58.115Z,13.39
2018-10-03T21:10:26.892Z,13.39
2018-10-03T21:12:55.709Z,13.57
2018-10-03T21:15:25.020Z,13.52
2018-10-03T21:17:53.794Z,13.39
2018-10-03T21:20:22.569Z,13.54
2018-10-03T21:22:51.333Z,13.47
2018-10-03T21:25:20.080Z,13.32
2018-10-03T21:27:48.958Z,13.37
2018-10-03T21:30:17.650Z,13.33
2018-10-03T21:32:46.295Z,13.31
2018-10-03T21:35:15.041Z,13.29
2018-10-03T21:37:43.795Z,13.22
2018-10-03T21:40:12.590Z,13.23
2018-10-03T21:42:41.472Z,13.24
2018-10-03T21:45:10.320Z,13.07
2018-10-03T21:47:39.023Z,13.08
2018-10-03T21:50:07.890Z,13.09
2018-10-03T21:52:36.562Z,13.09
2018-10-03T21:55:05.289Z,13.16
2018-10-03T21:57:34.302Z,13.24
2018-10-03T22:00:03.086Z,13.14
2018-10-03T22:02:31.777Z,13.19
2018-10-03T22:05:00.472Z,13.17
2018-10-03T22:07:29.145Z,13.07
2018-10-03T22:09:58.086Z,13.06
2018-10-03T22:12:26.799Z,13.16
2018-10-03T22:14:55.478Z,13.14
2018-10-03T22:17:25.828Z,13.17
2018-10-03T22:19:56.026Z,13.15
2018-10-03T22:22:24.799Z,13.15
2018-10-03T22:24:53.472Z,13.13
2018-10-03T22:27:22.142Z,13.08
2018-10-03T22:29:50.848Z,13.14
2018-10-03T22:32:19.554Z,13.14
2018-10-03T22:34:48.260Z,13.14
2018-10-03T22:37:16.972Z,13.12
2018-10-03T22:39:45.655Z,13.13
2018-10-03T22:44:47.093Z,13.11
2018-10-03T22:47:15.863Z,13.02
2018-10-03T22:49:44.572Z,13.04
2018-10-03T22:52:13.358Z,13.03
2018-10-03T22:54:42.014Z,13.03
2018-10-03T22:57:10.673Z,13.12
2018-10-03T22:59:39.383Z,13.18
2018-10-03T23:02:08.531Z,13.06
2018-10-03T23:04:37.245Z,13.13
2018-10-03T23:07:05.929Z,13.18
2018-10-03T23:09:34.602Z,13.14
2018-10-03T23:12:03.304Z,13.18
2018-10-03T23:14:32.006Z,13.16
2018-10-03T23:17:00.712Z,13.27
2018-10-03T23:19:29.387Z,13.28
2018-10-03T23:21:58.083Z,13.13
2018-10-03T23:24:26.762Z,13.08
2018-10-03T23:26:55.442Z,13.07
2018-10-03T23:29:24.150Z,13.13
2018-10-03T23:31:52.849Z,13.08
2018-10-03T23:34:21.516Z,13.07
2018-10-03T23:36:50.335Z,13.17
2018-10-03T23:39:19.242Z,13.14
2018-10-03T23:41:47.948Z,13.12
2018-10-03T23:44:16.622Z,13.07
2018-10-03T23:46:45.323Z,12.97
2018-10-03T23:49:14.091Z,13.04
2018-10-03T23:51:42.837Z,13.11
2018-10-03T23:54:11.878Z,13.04
2018-10-03T23:56:40.549Z,13.06
2018-10-03T23:59:11.617Z,13.00
